sensor_id;sensor_type;location;lat;lon;timestamp;temperature;humidity
3638;DHT22;1835;50.068;8.154;2022-09-04T00:01:52;15.60;99.90
3638;DHT22;1835;50.068;8.154;2022-09-04T00:04:31;15.40;99.90
3638;DHT22;1835;50.068;8.154;2022-09-04T00:07:11;15.20;99.90
3638;DHT22;1835;50.068;8.154;2022-09-04T00:09:52;15.40;99.90
3638;DHT22;1835;50.068;8.154;2022-09-04T00:12:30;15.30;99.90
3638;DHT22;1835;50.068;8.154;2022-09-04T00:15:09;15.50;99.90
3638;DHT22;1835;50.068;8.154;2022-09-04T00:17:45;15.50;99.90
3638;DHT22;1835;50.068;8.154;2022-09-04T00:20:30;15.60;99.90
3638;DHT22;1835;50.068;8.154;2022-09-04T00:23:09;15.50;99.90
3638;DHT22;1835;50.068;8.154;2022-09-04T00:25:46;15.40;99.90
3638;DHT22;1835;50.068;8.154;2022-09-04T00:28:29;15.60;99.90
3638;DHT22;1835;50.068;8.154;2022-09-04T00:31:06;15.70;99.90
3638;DHT22;1835;50.068;8.154;2022-09-04T00:33:47;15.70;99.90
3638;DHT22;1835;50.068;8.154;2022-09-04T00:36:26;15.40;99.90
3638;DHT22;1835;50.068;8.154;2022-09-04T00:38:56;15.40;99.90
3638;DHT22;1835;50.068;8.154;2022-09-04T00:41:28;15.30;99.90
3638;DHT22;1835;50.068;8.154;2022-09-04T00:44:12;15.20;99.90
3638;DHT22;1835;50.068;8.154;2022-09-04T00:47:27;15.30;99.90
3638;DHT22;1835;50.068;8.154;2022-09-04T00:50:11;15.30;99.90
3638;DHT22;1835;50.068;8.154;2022-09-04T00:53:15;15.40;99.90
3638;DHT22;1835;50.068;8.154;2022-09-04T00:56:16;15.50;99.90
3638;DHT22;1835;50.068;8.154;2022-09-04T00:59:17;15.50;99.90
3638;DHT22;1835;50.068;8.154;2022-09-04T01:01:57;15.40;99.90
3638;DHT22;1835;50.068;8.154;2022-09-04T01:04:37;15.40;99.90
3638;DHT22;1835;50.068;8.154;2022-09-04T01:07:37;15.40;99.90
3638;DHT22;1835;50.068;8.154;2022-09-04T01:10:20;15.50;99.90
3638;DHT22;1835;50.068;8.154;2022-09-04T01:12:59;15.70;99.90
3638;DHT22;1835;50.068;8.154;2022-09-04T01:15:36;15.80;99.90
3638;DHT22;1835;50.068;8.154;2022-09-04T01:18:12;15.90;99.90
3638;DHT22;1835;50.068;8.154;2022-09-04T01:21:13;15.80;99.90
3638;DHT22;1835;50.068;8.154;2022-09-04T01:23:58;15.90;99.90
3638;DHT22;1835;50.068;8.154;2022-09-04T01:26:44;15.80;99.90
3638;DHT22;1835;50.068;8.154;2022-09-04T01:29:22;15.70;99.90
3638;DHT22;1835;50.068;8.154;2022-09-04T01:32:01;15.70;99.90
3638;DHT22;1835;50.068;8.154;2022-09-04T01:34:42;15.70;99.90
3638;DHT22;1835;50.068;8.154;2022-09-04T01:37:24;15.80;99.90
3638;DHT22;1835;50.068;8.154;2022-09-04T01:40:10;15.80;99.90
3638;DHT22;1835;50.068;8.154;2022-09-04T01:42:49;15.80;99.90
3638;DHT22;1835;50.068;8.154;2022-09-04T01:45:30;15.70;99.90
3638;DHT22;1835;50.068;8.154;2022-09-04T01:48:04;15.80;99.90
3638;DHT22;1835;50.068;8.154;2022-09-04T01:50:37;15.90;99.90
3638;DHT22;1835;50.068;8.154;2022-09-04T01:53:11;15.90;99.90
3638;DHT22;1835;50.068;8.154;2022-09-04T01:55:46;16.00;99.90
3638;DHT22;1835;50.068;8.154;2022-09-04T01:58:36;16.00;99.90
3638;DHT22;1835;50.068;8.154;2022-09-04T02:01:15;16.20;99.90
3638;DHT22;1835;50.068;8.154;2022-09-04T02:03:55;16.30;99.90
3638;DHT22;1835;50.068;8.154;2022-09-04T02:06:31;16.20;99.90
3638;DHT22;1835;50.068;8.154;2022-09-04T02:09:09;16.20;99.90
3638;DHT22;1835;50.068;8.154;2022-09-04T02:11:47;16.20;99.90
3638;DHT22;1835;50.068;8.154;2022-09-04T02:14:31;16.10;99.90
3638;DHT22;1835;50.068;8.154;2022-09-04T02:17:08;16.10;99.90
3638;DHT22;1835;50.068;8.154;2022-09-04T02:20:00;16.20;99.90
3638;DHT22;1835;50.068;8.154;2022-09-04T02:22:40;16.30;99.90
3638;DHT22;1835;50.068;8.154;2022-09-04T02:25:19;16.40;99.90
3638;DHT22;1835;50.068;8.154;2022-09-04T02:27:56;16.50;99.90
3638;DHT22;1835;50.068;8.154;2022-09-04T02:30:38;16.40;99.90
3638;DHT22;1835;50.068;8.154;2022-09-04T02:33:16;16.50;99.90
3638;DHT22;1835;50.068;8.154;2022-09-04T02:35:50;16.50;99.90
3638;DHT22;1835;50.068;8.154;2022-09-04T02:38:28;16.40;99.90
3638;DHT22;1835;50.068;8.154;2022-09-04T02:41:04;16.50;99.90
3638;DHT22;1835;50.068;8.154;2022-09-04T02:43:49;16.40;99.90
3638;DHT22;1835;50.068;8.154;2022-09-04T02:46:30;16.40;99.90
3638;DHT22;1835;50.068;8.154;2022-09-04T02:49:11;16.30;99.90
3638;DHT22;1835;50.068;8.154;2022-09-04T02:51:59;16.30;99.90
3638;DHT22;1835;50.068;8.154;2022-09-04T02:54:45;16.30;99.90
3638;DHT22;1835;50.068;8.154;2022-09-04T02:57:26;16.30;99.90
3638;DHT22;1835;50.068;8.154;2022-09-04T03:00:03;16.30;99.90
3638;DHT22;1835;50.068;8.154;2022-09-04T03:02:40;16.50;99.90
3638;DHT22;1835;50.068;8.154;2022-09-04T03:05:18;16.50;99.90
3638;DHT22;1835;50.068;8.154;2022-09-04T03:07:55;16.60;99.90
3638;DHT22;1835;50.068;8.154;2022-09-04T03:10:31;16.60;99.90
3638;DHT22;1835;50.068;8.154;2022-09-04T03:13:06;16.60;99.90
3638;DHT22;1835;50.068;8.154;2022-09-04T03:15:43;16.60;99.90
3638;DHT22;1835;50.068;8.154;2022-09-04T03:18:21;16.60;99.90
3638;DHT22;1835;50.068;8.154;2022-09-04T03:20:55;16.60;99.90
3638;DHT22;1835;50.068;8.154;2022-09-04T03:23:31;16.70;99.90
3638;DHT22;1835;50.068;8.154;2022-09-04T03:26:17;16.60;99.90
3638;DHT22;1835;50.068;8.154;2022-09-04T03:28:54;16.60;99.90
3638;DHT22;1835;50.068;8.154;2022-09-04T03:31:31;16.50;99.90
3638;DHT22;1835;50.068;8.154;2022-09-04T03:34:24;16.50;99.90
3638;DHT22;1835;50.068;8.154;2022-09-04T03:37:12;16.60;99.90
3638;DHT22;1835;50.068;8.154;2022-09-04T03:40:05;16.60;99.90
3638;DHT22;1835;50.068;8.154;2022-09-04T03:42:52;16.60;99.90
3638;DHT22;1835;50.068;8.154;2022-09-04T03:45:36;16.60;99.90
3638;DHT22;1835;50.068;8.154;2022-09-04T03:48:23;16.60;99.90
3638;DHT22;1835;50.068;8.154;2022-09-04T03:51:10;16.60;99.90
3638;DHT22;1835;50.068;8.154;2022-09-04T03:53:44;16.60;99.90
3638;DHT22;1835;50.068;8.154;2022-09-04T03:56:38;16.60;99.90
3638;DHT22;1835;50.068;8.154;2022-09-04T03:59:22;16.60;99.90
3638;DHT22;1835;50.068;8.154;2022-09-04T04:02:04;16.60;99.90
3638;DHT22;1835;50.068;8.154;2022-09-04T04:04:55;16.70;99.90
3638;DHT22;1835;50.068;8.154;2022-09-04T04:07:48;16.60;99.90
3638;DHT22;1835;50.068;8.154;2022-09-04T04:10:25;16.70;99.90
3638;DHT22;1835;50.068;8.154;2022-09-04T04:16:17;16.80;99.90
3638;DHT22;1835;50.068;8.154;2022-09-04T04:19:04;16.80;99.90
3638;DHT22;1835;50.068;8.154;2022-09-04T04:21:54;16.70;99.90
3638;DHT22;1835;50.068;8.154;2022-09-04T04:24:55;16.70;99.90
3638;DHT22;1835;50.068;8.154;2022-09-04T04:27:52;16.70;99.90
3638;DHT22;1835;50.068;8.154;2022-09-04T04:30:29;16.70;99.90
3638;DHT22;1835;50.068;8.154;2022-09-04T04:33:12;16.70;99.90
3638;DHT22;1835;50.068;8.154;2022-09-04T04:35:53;16.80;99.90
3638;DHT22;1835;50.068;8.154;2022-09-04T04:38:48;16.80;99.90
3638;DHT22;1835;50.068;8.154;2022-09-04T04:41:44;16.70;99.90
3638;DHT22;1835;50.068;8.154;2022-09-04T04:44:56;16.70;99.90
3638;DHT22;1835;50.068;8.154;2022-09-04T04:48:19;16.70;99.90
3638;DHT22;1835;50.068;8.154;2022-09-04T04:51:16;16.70;99.90
3638;DHT22;1835;50.068;8.154;2022-09-04T04:53:55;16.80;99.90
3638;DHT22;1835;50.068;8.154;2022-09-04T04:56:30;16.80;99.90
3638;DHT22;1835;50.068;8.154;2022-09-04T04:59:07;17.00;99.90
3638;DHT22;1835;50.068;8.154;2022-09-04T05:01:52;16.90;99.90
3638;DHT22;1835;50.068;8.154;2022-09-04T05:04:34;16.90;99.90
3638;DHT22;1835;50.068;8.154;2022-09-04T05:07:14;17.00;99.90
3638;DHT22;1835;50.068;8.154;2022-09-04T05:09:52;16.90;99.90
3638;DHT22;1835;50.068;8.154;2022-09-04T05:12:28;16.70;99.90
3638;DHT22;1835;50.068;8.154;2022-09-04T05:15:12;16.70;99.90
3638;DHT22;1835;50.068;8.154;2022-09-04T05:17:50;16.70;99.90
3638;DHT22;1835;50.068;8.154;2022-09-04T05:20:35;16.70;99.90
3638;DHT22;1835;50.068;8.154;2022-09-04T05:23:28;16.80;99.90
3638;DHT22;1835;50.068;8.154;2022-09-04T05:26:09;16.70;99.90
3638;DHT22;1835;50.068;8.154;2022-09-04T05:28:46;16.70;99.90
3638;DHT22;1835;50.068;8.154;2022-09-04T05:31:29;16.80;99.90
3638;DHT22;1835;50.068;8.154;2022-09-04T05:34:10;16.80;99.90
3638;DHT22;1835;50.068;8.154;2022-09-04T05:36:51;16.70;99.90
3638;DHT22;1835;50.068;8.154;2022-09-04T05:39:29;16.70;99.90
3638;DHT22;1835;50.068;8.154;2022-09-04T05:42:13;16.50;99.90
3638;DHT22;1835;50.068;8.154;2022-09-04T05:45:05;16.70;99.90
3638;DHT22;1835;50.068;8.154;2022-09-04T05:47:45;16.80;99.90
3638;DHT22;1835;50.068;8.154;2022-09-04T05:50:40;16.80;99.90
3638;DHT22;1835;50.068;8.154;2022-09-04T05:56:46;16.90;99.90
3638;DHT22;1835;50.068;8.154;2022-09-04T05:59:33;16.90;99.90
3638;DHT22;1835;50.068;8.154;2022-09-04T06:02:31;16.90;99.90
3638;DHT22;1835;50.068;8.154;2022-09-04T06:05:22;16.90;99.90
3638;DHT22;1835;50.068;8.154;2022-09-04T06:08:00;16.90;99.90
3638;DHT22;1835;50.068;8.154;2022-09-04T06:10:48;16.90;99.90
3638;DHT22;1835;50.068;8.154;2022-09-04T06:13:49;16.80;99.90
3638;DHT22;1835;50.068;8.154;2022-09-04T06:16:54;16.80;99.90
3638;DHT22;1835;50.068;8.154;2022-09-04T06:19:40;16.80;99.90
3638;DHT22;1835;50.068;8.154;2022-09-04T06:26:02;16.80;99.90
3638;DHT22;1835;50.068;8.154;2022-09-04T06:28:50;16.80;99.90
3638;DHT22;1835;50.068;8.154;2022-09-04T06:32:08;16.90;99.90
3638;DHT22;1835;50.068;8.154;2022-09-04T06:35:08;16.90;99.90
3638;DHT22;1835;50.068;8.154;2022-09-04T06:37:49;17.00;99.90
3638;DHT22;1835;50.068;8.154;2022-09-04T06:40:35;17.00;99.90
3638;DHT22;1835;50.068;8.154;2022-09-04T06:43:18;17.10;99.90
3638;DHT22;1835;50.068;8.154;2022-09-04T06:46:01;16.90;99.90
3638;DHT22;1835;50.068;8.154;2022-09-04T06:48:45;17.00;99.90
3638;DHT22;1835;50.068;8.154;2022-09-04T06:51:34;17.00;99.90
3638;DHT22;1835;50.068;8.154;2022-09-04T06:54:20;17.10;99.90
3638;DHT22;1835;50.068;8.154;2022-09-04T06:57:23;17.10;99.90
3638;DHT22;1835;50.068;8.154;2022-09-04T07:00:05;17.20;99.90
3638;DHT22;1835;50.068;8.154;2022-09-04T07:02:57;17.20;99.90
3638;DHT22;1835;50.068;8.154;2022-09-04T07:05:41;17.40;99.90
3638;DHT22;1835;50.068;8.154;2022-09-04T07:08:31;17.30;99.90
3638;DHT22;1835;50.068;8.154;2022-09-04T07:11:26;17.20;99.90
3638;DHT22;1835;50.068;8.154;2022-09-04T07:17:13;17.30;99.90
3638;DHT22;1835;50.068;8.154;2022-09-04T07:19:56;17.30;99.90
3638;DHT22;1835;50.068;8.154;2022-09-04T07:22:55;17.40;99.90
3638;DHT22;1835;50.068;8.154;2022-09-04T07:25:39;17.30;99.90
3638;DHT22;1835;50.068;8.154;2022-09-04T07:28:21;17.10;99.90
3638;DHT22;1835;50.068;8.154;2022-09-04T07:31:01;17.10;99.90
3638;DHT22;1835;50.068;8.154;2022-09-04T07:33:36;17.10;99.90
3638;DHT22;1835;50.068;8.154;2022-09-04T07:36:12;17.20;99.90
3638;DHT22;1835;50.068;8.154;2022-09-04T07:38:47;17.30;99.90
3638;DHT22;1835;50.068;8.154;2022-09-04T07:41:22;17.30;99.90
3638;DHT22;1835;50.068;8.154;2022-09-04T07:43:58;17.40;99.90
3638;DHT22;1835;50.068;8.154;2022-09-04T07:46:34;17.30;99.90
3638;DHT22;1835;50.068;8.154;2022-09-04T07:49:11;17.40;99.90
3638;DHT22;1835;50.068;8.154;2022-09-04T07:51:44;17.50;99.90
3638;DHT22;1835;50.068;8.154;2022-09-04T07:54:43;17.60;99.90
3638;DHT22;1835;50.068;8.154;2022-09-04T07:57:56;17.80;99.90
3638;DHT22;1835;50.068;8.154;2022-09-04T08:00:43;17.70;99.90
3638;DHT22;1835;50.068;8.154;2022-09-04T08:03:30;17.70;99.90
3638;DHT22;1835;50.068;8.154;2022-09-04T08:06:23;17.60;99.90
3638;DHT22;1835;50.068;8.154;2022-09-04T08:09:13;17.80;99.90
3638;DHT22;1835;50.068;8.154;2022-09-04T08:12:02;17.90;99.90
3638;DHT22;1835;50.068;8.154;2022-09-04T08:15:03;18.00;99.90
3638;DHT22;1835;50.068;8.154;2022-09-04T08:18:07;18.20;99.90
3638;DHT22;1835;50.068;8.154;2022-09-04T08:20:53;18.20;99.90
3638;DHT22;1835;50.068;8.154;2022-09-04T08:27:07;17.90;99.90
3638;DHT22;1835;50.068;8.154;2022-09-04T08:30:02;18.10;99.90
3638;DHT22;1835;50.068;8.154;2022-09-04T08:32:46;18.10;99.90
3638;DHT22;1835;50.068;8.154;2022-09-04T08:35:30;18.10;99.90
3638;DHT22;1835;50.068;8.154;2022-09-04T08:38:25;18.00;99.90
3638;DHT22;1835;50.068;8.154;2022-09-04T08:41:31;18.00;99.90
3638;DHT22;1835;50.068;8.154;2022-09-04T08:44:59;18.20;99.90
3638;DHT22;1835;50.068;8.154;2022-09-04T08:54:56;18.20;99.90
3638;DHT22;1835;50.068;8.154;2022-09-04T09:01:08;18.40;99.90
3638;DHT22;1835;50.068;8.154;2022-09-04T09:04:13;18.20;99.90
3638;DHT22;1835;50.068;8.154;2022-09-04T09:07:37;18.30;99.90
3638;DHT22;1835;50.068;8.154;2022-09-04T09:13:47;18.50;99.90
3638;DHT22;1835;50.068;8.154;2022-09-04T09:16:39;18.50;99.90
3638;DHT22;1835;50.068;8.154;2022-09-04T09:19:18;18.60;99.90
3638;DHT22;1835;50.068;8.154;2022-09-04T09:22:07;18.70;99.90
3638;DHT22;1835;50.068;8.154;2022-09-04T09:34:58;18.70;99.90
3638;DHT22;1835;50.068;8.154;2022-09-04T09:41:03;18.80;99.90
3638;DHT22;1835;50.068;8.154;2022-09-04T09:44:22;19.10;99.90
3638;DHT22;1835;50.068;8.154;2022-09-04T09:47:36;19.10;99.90
3638;DHT22;1835;50.068;8.154;2022-09-04T09:50:40;19.30;99.90
3638;DHT22;1835;50.068;8.154;2022-09-04T09:53:50;19.40;99.90
3638;DHT22;1835;50.068;8.154;2022-09-04T09:57:00;19.50;99.90
3638;DHT22;1835;50.068;8.154;2022-09-04T10:00:05;19.50;99.90
3638;DHT22;1835;50.068;8.154;2022-09-04T10:03:13;19.60;99.90
3638;DHT22;1835;50.068;8.154;2022-09-04T10:09:54;19.60;99.90
3638;DHT22;1835;50.068;8.154;2022-09-04T10:12:56;19.90;99.90
3638;DHT22;1835;50.068;8.154;2022-09-04T10:15:53;19.90;99.90
3638;DHT22;1835;50.068;8.154;2022-09-04T10:22:18;20.20;99.90
3638;DHT22;1835;50.068;8.154;2022-09-04T10:25:27;20.10;99.90
3638;DHT22;1835;50.068;8.154;2022-09-04T10:32:05;20.00;99.90
3638;DHT22;1835;50.068;8.154;2022-09-04T10:35:20;20.20;99.90
3638;DHT22;1835;50.068;8.154;2022-09-04T10:44:42;20.10;99.90
3638;DHT22;1835;50.068;8.154;2022-09-04T10:47:23;20.10;99.90
3638;DHT22;1835;50.068;8.154;2022-09-04T10:50:20;20.40;99.90
3638;DHT22;1835;50.068;8.154;2022-09-04T10:53:03;20.50;99.90
3638;DHT22;1835;50.068;8.154;2022-09-04T10:56:07;20.90;99.90
3638;DHT22;1835;50.068;8.154;2022-09-04T10:59:08;21.10;99.90
3638;DHT22;1835;50.068;8.154;2022-09-04T11:05:30;22.40;99.90
3638;DHT22;1835;50.068;8.154;2022-09-04T11:08:29;23.20;99.90
3638;DHT22;1835;50.068;8.154;2022-09-04T11:11:17;23.80;99.90
3638;DHT22;1835;50.068;8.154;2022-09-04T11:14:11;24.40;99.90
3638;DHT22;1835;50.068;8.154;2022-09-04T11:17:20;24.80;99.90
3638;DHT22;1835;50.068;8.154;2022-09-04T11:20:37;25.50;99.90
3638;DHT22;1835;50.068;8.154;2022-09-04T11:23:50;25.30;99.90
3638;DHT22;1835;50.068;8.154;2022-09-04T11:29:54;24.80;99.90
3638;DHT22;1835;50.068;8.154;2022-09-04T11:32:51;24.70;99.90
3638;DHT22;1835;50.068;8.154;2022-09-04T11:36:00;24.60;99.90
3638;DHT22;1835;50.068;8.154;2022-09-04T11:42:31;23.50;99.90
3638;DHT22;1835;50.068;8.154;2022-09-04T11:45:28;23.20;99.90
3638;DHT22;1835;50.068;8.154;2022-09-04T11:48:58;23.10;99.90
3638;DHT22;1835;50.068;8.154;2022-09-04T11:52:00;22.80;99.90
3638;DHT22;1835;50.068;8.154;2022-09-04T11:57:43;22.80;99.90
3638;DHT22;1835;50.068;8.154;2022-09-04T12:00:38;22.90;99.90
3638;DHT22;1835;50.068;8.154;2022-09-04T12:03:41;23.00;99.90
3638;DHT22;1835;50.068;8.154;2022-09-04T12:06:27;23.10;99.90
3638;DHT22;1835;50.068;8.154;2022-09-04T12:09:45;23.10;99.90
3638;DHT22;1835;50.068;8.154;2022-09-04T12:19:14;23.60;99.90
3638;DHT22;1835;50.068;8.154;2022-09-04T12:22:35;23.40;99.90
3638;DHT22;1835;50.068;8.154;2022-09-04T12:25:32;23.20;99.90
3638;DHT22;1835;50.068;8.154;2022-09-04T12:28:45;23.40;99.90
3638;DHT22;1835;50.068;8.154;2022-09-04T12:31:52;23.60;99.90
3638;DHT22;1835;50.068;8.154;2022-09-04T12:34:57;23.70;99.90
3638;DHT22;1835;50.068;8.154;2022-09-04T12:41:18;23.90;99.90
3638;DHT22;1835;50.068;8.154;2022-09-04T12:43:56;23.80;99.90
3638;DHT22;1835;50.068;8.154;2022-09-04T12:46:45;23.70;99.90
3638;DHT22;1835;50.068;8.154;2022-09-04T12:49:38;23.70;99.90
3638;DHT22;1835;50.068;8.154;2022-09-04T12:52:38;23.70;99.90
3638;DHT22;1835;50.068;8.154;2022-09-04T12:55:15;23.80;99.90
3638;DHT22;1835;50.068;8.154;2022-09-04T12:57:59;23.80;99.90
3638;DHT22;1835;50.068;8.154;2022-09-04T13:00:37;23.90;99.90
3638;DHT22;1835;50.068;8.154;2022-09-04T13:03:22;23.90;99.90
3638;DHT22;1835;50.068;8.154;2022-09-04T13:06:09;24.00;99.90
3638;DHT22;1835;50.068;8.154;2022-09-04T13:08:52;24.30;99.90
3638;DHT22;1835;50.068;8.154;2022-09-04T13:11:44;24.50;99.90
3638;DHT22;1835;50.068;8.154;2022-09-04T13:14:38;24.60;99.90
3638;DHT22;1835;50.068;8.154;2022-09-04T13:17:17;24.70;99.90
3638;DHT22;1835;50.068;8.154;2022-09-04T13:19:53;24.60;99.90
3638;DHT22;1835;50.068;8.154;2022-09-04T13:22:31;24.70;99.90
3638;DHT22;1835;50.068;8.154;2022-09-04T13:25:24;24.70;99.70
3638;DHT22;1835;50.068;8.154;2022-09-04T13:28:05;24.70;99.90
3638;DHT22;1835;50.068;8.154;2022-09-04T13:30:50;24.70;99.90
3638;DHT22;1835;50.068;8.154;2022-09-04T13:33:30;24.70;99.90
3638;DHT22;1835;50.068;8.154;2022-09-04T13:36:15;24.70;99.90
3638;DHT22;1835;50.068;8.154;2022-09-04T13:42:34;24.50;99.80
3638;DHT22;1835;50.068;8.154;2022-09-04T13:45:32;24.60;99.30
3638;DHT22;1835;50.068;8.154;2022-09-04T13:48:11;24.70;99.60
3638;DHT22;1835;50.068;8.154;2022-09-04T13:50:44;24.80;99.20
3638;DHT22;1835;50.068;8.154;2022-09-04T13:53:19;24.90;99.70
3638;DHT22;1835;50.068;8.154;2022-09-04T13:55:52;24.80;99.90
3638;DHT22;1835;50.068;8.154;2022-09-04T13:58:26;24.90;99.90
3638;DHT22;1835;50.068;8.154;2022-09-04T14:00:59;25.10;99.60
3638;DHT22;1835;50.068;8.154;2022-09-04T14:03:40;25.20;99.30
3638;DHT22;1835;50.068;8.154;2022-09-04T14:06:13;25.30;98.80
3638;DHT22;1835;50.068;8.154;2022-09-04T14:08:44;25.30;98.70
3638;DHT22;1835;50.068;8.154;2022-09-04T14:12:05;25.50;99.10
3638;DHT22;1835;50.068;8.154;2022-09-04T14:18:04;25.60;98.80
3638;DHT22;1835;50.068;8.154;2022-09-04T14:20:48;25.70;98.60
3638;DHT22;1835;50.068;8.154;2022-09-04T14:23:35;25.70;98.30
3638;DHT22;1835;50.068;8.154;2022-09-04T14:26:15;25.60;98.00
3638;DHT22;1835;50.068;8.154;2022-09-04T14:28:57;25.60;98.20
3638;DHT22;1835;50.068;8.154;2022-09-04T14:31:37;25.60;97.90
3638;DHT22;1835;50.068;8.154;2022-09-04T14:34:19;25.60;98.10
3638;DHT22;1835;50.068;8.154;2022-09-04T14:37:00;25.70;97.10
3638;DHT22;1835;50.068;8.154;2022-09-04T14:39:37;25.80;97.20
3638;DHT22;1835;50.068;8.154;2022-09-04T14:42:24;25.80;95.80
3638;DHT22;1835;50.068;8.154;2022-09-04T14:45:14;25.80;96.10
3638;DHT22;1835;50.068;8.154;2022-09-04T14:47:53;25.80;96.60
3638;DHT22;1835;50.068;8.154;2022-09-04T14:50:25;25.80;96.80
3638;DHT22;1835;50.068;8.154;2022-09-04T14:52:58;25.80;96.90
3638;DHT22;1835;50.068;8.154;2022-09-04T14:55:30;25.70;96.40
3638;DHT22;1835;50.068;8.154;2022-09-04T14:58:07;25.70;96.30
3638;DHT22;1835;50.068;8.154;2022-09-04T15:00:54;25.80;96.90
3638;DHT22;1835;50.068;8.154;2022-09-04T15:03:28;25.80;96.50
3638;DHT22;1835;50.068;8.154;2022-09-04T15:06:05;25.80;96.70
3638;DHT22;1835;50.068;8.154;2022-09-04T15:08:43;25.80;97.00
3638;DHT22;1835;50.068;8.154;2022-09-04T15:11:25;25.80;96.50
3638;DHT22;1835;50.068;8.154;2022-09-04T15:14:01;25.80;96.20
3638;DHT22;1835;50.068;8.154;2022-09-04T15:16:44;25.80;95.60
3638;DHT22;1835;50.068;8.154;2022-09-04T15:19:29;25.90;95.70
3638;DHT22;1835;50.068;8.154;2022-09-04T15:22:05;25.90;95.70
3638;DHT22;1835;50.068;8.154;2022-09-04T15:24:48;25.90;95.70
3638;DHT22;1835;50.068;8.154;2022-09-04T15:27:23;25.90;94.80
3638;DHT22;1835;50.068;8.154;2022-09-04T15:30:02;25.80;94.80
3638;DHT22;1835;50.068;8.154;2022-09-04T15:32:34;25.90;94.60
3638;DHT22;1835;50.068;8.154;2022-09-04T15:35:10;25.80;94.50
3638;DHT22;1835;50.068;8.154;2022-09-04T15:37:42;25.70;94.80
3638;DHT22;1835;50.068;8.154;2022-09-04T15:40:25;25.70;94.50
3638;DHT22;1835;50.068;8.154;2022-09-04T15:43:05;25.80;95.60
3638;DHT22;1835;50.068;8.154;2022-09-04T15:45:43;25.80;94.70
3638;DHT22;1835;50.068;8.154;2022-09-04T15:48:28;25.90;95.20
3638;DHT22;1835;50.068;8.154;2022-09-04T15:51:10;25.90;94.30
3638;DHT22;1835;50.068;8.154;2022-09-04T15:53:47;25.90;94.40
3638;DHT22;1835;50.068;8.154;2022-09-04T15:56:31;25.90;95.30
3638;DHT22;1835;50.068;8.154;2022-09-04T15:59:08;26.00;95.30
3638;DHT22;1835;50.068;8.154;2022-09-04T16:01:46;26.00;96.10
3638;DHT22;1835;50.068;8.154;2022-09-04T16:04:24;26.00;96.00
3638;DHT22;1835;50.068;8.154;2022-09-04T16:07:04;26.00;95.50
3638;DHT22;1835;50.068;8.154;2022-09-04T16:09:51;25.90;94.80
3638;DHT22;1835;50.068;8.154;2022-09-04T16:12:25;26.00;95.50
3638;DHT22;1835;50.068;8.154;2022-09-04T16:15:00;25.90;95.50
3638;DHT22;1835;50.068;8.154;2022-09-04T16:17:39;25.90;95.90
3638;DHT22;1835;50.068;8.154;2022-09-04T16:20:16;25.90;96.00
3638;DHT22;1835;50.068;8.154;2022-09-04T16:22:51;25.90;96.00
3638;DHT22;1835;50.068;8.154;2022-09-04T16:25:26;25.90;94.90
3638;DHT22;1835;50.068;8.154;2022-09-04T16:28:01;25.80;95.40
3638;DHT22;1835;50.068;8.154;2022-09-04T16:30:37;25.80;95.60
3638;DHT22;1835;50.068;8.154;2022-09-04T16:33:18;25.80;96.50
3638;DHT22;1835;50.068;8.154;2022-09-04T16:35:58;25.70;96.40
3638;DHT22;1835;50.068;8.154;2022-09-04T16:38:33;25.60;95.80
3638;DHT22;1835;50.068;8.154;2022-09-04T16:41:16;25.60;96.40
3638;DHT22;1835;50.068;8.154;2022-09-04T16:44:11;25.50;96.00
3638;DHT22;1835;50.068;8.154;2022-09-04T16:46:55;25.50;96.20
3638;DHT22;1835;50.068;8.154;2022-09-04T16:49:34;25.50;96.70
3638;DHT22;1835;50.068;8.154;2022-09-04T16:52:26;25.40;97.10
3638;DHT22;1835;50.068;8.154;2022-09-04T16:55:04;25.40;97.30
3638;DHT22;1835;50.068;8.154;2022-09-04T16:57:37;25.30;98.00
3638;DHT22;1835;50.068;8.154;2022-09-04T17:00:13;25.30;97.90
3638;DHT22;1835;50.068;8.154;2022-09-04T17:02:44;25.20;98.00
3638;DHT22;1835;50.068;8.154;2022-09-04T17:05:20;25.10;98.20
3638;DHT22;1835;50.068;8.154;2022-09-04T17:07:57;25.10;98.80
3638;DHT22;1835;50.068;8.154;2022-09-04T17:10:34;24.80;99.30
3638;DHT22;1835;50.068;8.154;2022-09-04T17:13:14;24.70;99.60
3638;DHT22;1835;50.068;8.154;2022-09-04T17:15:54;24.60;99.80
3638;DHT22;1835;50.068;8.154;2022-09-04T17:18:26;24.60;99.90
3638;DHT22;1835;50.068;8.154;2022-09-04T17:21:01;24.50;99.90
3638;DHT22;1835;50.068;8.154;2022-09-04T17:23:55;24.40;99.90
3638;DHT22;1835;50.068;8.154;2022-09-04T17:26:49;24.20;99.90
3638;DHT22;1835;50.068;8.154;2022-09-04T17:29:46;23.90;99.90
3638;DHT22;1835;50.068;8.154;2022-09-04T17:32:21;23.70;99.90
3638;DHT22;1835;50.068;8.154;2022-09-04T17:35:18;23.70;99.90
3638;DHT22;1835;50.068;8.154;2022-09-04T17:38:16;23.50;99.90
3638;DHT22;1835;50.068;8.154;2022-09-04T17:41:12;23.40;99.90
3638;DHT22;1835;50.068;8.154;2022-09-04T17:44:24;23.30;99.90
3638;DHT22;1835;50.068;8.154;2022-09-04T17:47:09;23.30;99.90
3638;DHT22;1835;50.068;8.154;2022-09-04T17:49:46;23.30;99.90
3638;DHT22;1835;50.068;8.154;2022-09-04T17:52:21;23.10;99.90
3638;DHT22;1835;50.068;8.154;2022-09-04T17:54:55;23.00;99.90
3638;DHT22;1835;50.068;8.154;2022-09-04T17:57:31;22.90;99.90
3638;DHT22;1835;50.068;8.154;2022-09-04T18:00:17;22.80;99.90
3638;DHT22;1835;50.068;8.154;2022-09-04T18:02:51;22.70;99.90
3638;DHT22;1835;50.068;8.154;2022-09-04T18:05:28;22.60;99.90
3638;DHT22;1835;50.068;8.154;2022-09-04T18:08:06;22.70;99.90
3638;DHT22;1835;50.068;8.154;2022-09-04T18:10:48;22.60;99.90
3638;DHT22;1835;50.068;8.154;2022-09-04T18:13:25;22.60;99.90
3638;DHT22;1835;50.068;8.154;2022-09-04T18:16:15;22.50;99.90
3638;DHT22;1835;50.068;8.154;2022-09-04T18:19:12;22.50;99.90
3638;DHT22;1835;50.068;8.154;2022-09-04T18:21:46;22.30;99.90
3638;DHT22;1835;50.068;8.154;2022-09-04T18:24:37;22.30;99.90
3638;DHT22;1835;50.068;8.154;2022-09-04T18:27:13;22.20;99.90
3638;DHT22;1835;50.068;8.154;2022-09-04T18:29:49;22.20;99.90
3638;DHT22;1835;50.068;8.154;2022-09-04T18:32:47;22.10;99.90
3638;DHT22;1835;50.068;8.154;2022-09-04T18:35:49;22.00;99.90
3638;DHT22;1835;50.068;8.154;2022-09-04T18:38:47;21.90;99.90
3638;DHT22;1835;50.068;8.154;2022-09-04T18:41:37;21.90;99.90
3638;DHT22;1835;50.068;8.154;2022-09-04T18:44:43;21.90;99.90
3638;DHT22;1835;50.068;8.154;2022-09-04T18:47:39;21.70;99.90
3638;DHT22;1835;50.068;8.154;2022-09-04T18:50:37;21.50;99.90
3638;DHT22;1835;50.068;8.154;2022-09-04T18:53:31;21.50;99.90
3638;DHT22;1835;50.068;8.154;2022-09-04T18:56:06;21.40;99.90
3638;DHT22;1835;50.068;8.154;2022-09-04T18:58:56;21.40;99.90
3638;DHT22;1835;50.068;8.154;2022-09-04T19:01:35;21.30;99.90
3638;DHT22;1835;50.068;8.154;2022-09-04T19:07:18;21.10;99.90
3638;DHT22;1835;50.068;8.154;2022-09-04T19:10:09;21.10;99.90
3638;DHT22;1835;50.068;8.154;2022-09-04T19:13:00;21.10;99.90
3638;DHT22;1835;50.068;8.154;2022-09-04T19:15:44;20.90;99.90
3638;DHT22;1835;50.068;8.154;2022-09-04T19:18:21;20.90;99.90
3638;DHT22;1835;50.068;8.154;2022-09-04T19:24:12;20.70;99.90
3638;DHT22;1835;50.068;8.154;2022-09-04T19:27:03;20.70;99.90
3638;DHT22;1835;50.068;8.154;2022-09-04T19:30:00;20.70;99.90
3638;DHT22;1835;50.068;8.154;2022-09-04T19:33:02;20.50;99.90
3638;DHT22;1835;50.068;8.154;2022-09-04T19:35:35;20.50;99.90
3638;DHT22;1835;50.068;8.154;2022-09-04T19:38:13;20.40;99.90
3638;DHT22;1835;50.068;8.154;2022-09-04T19:41:07;20.30;99.90
3638;DHT22;1835;50.068;8.154;2022-09-04T19:44:03;20.30;99.90